Hlavní strana
METAR-TAF:

METAR-TAF

Letiště :

Heliport

Værøy, Norsko

zeměpisná šířka: 67-39-16N, zeměpisná délka: 12-43-37E, výška: 5 m

Aktuální stav počasí

Zpráva byla vytvořena před 6 hodinami a 36 minutami, v 13:50 UTC
Jižní vítr 5 kt
Teplota 6°C
Vlhkost vzduchu 75%
Tlak 1010 hPa
Viditelnost 10 km a více
Skoro jasno ve výšce 1800 ft
přeháňky v blízkosti

METAR: ENVR 141350Z 18005KT 9999 VCSH FEW018 BKN70 06/02 Q1010

Čas: 22:26 (20:26 UTC)


TAF: chybějící

Stav a předpovědi počasí z více než 4 000 letišť (zprávy METAR a TAF).

Červené a žluté tečky na mapě představují dostupné meteorologické stanice.

Když kurzor umístíte na tečku, zobrazí se název stanice.

Pak kliknutím zobrazíte stav a předpověď počasí.

Chcete-li změnit mapu, kliknutím na zelené tlačítko se znaménkem +mapu přiblížíte, kliknutím na zelené tlačítko se znaménkem – mapu oddálíte a kliknutím na zelené šipky přejdete na sousední mapy.


METAR-TAF: